Time;durP1;ratioP1;P1;durP2;ratioP2;P2;SDS_P1;SDS_P2;PMS_P1;PMS_P2;Temp;Humidity;BMP_temperature;BMP_pressure;BME280_temperature;BME280_humidity;BME280_pressure;Samples;Min_cycle;Max_cycle;Signal;HPM_P1;HPM_P2
2021/03/13 00:01:42;;;;;;;3.58;1.50;;;6.00;99.90;;;;;;5069137;28;20594;-53
2021/03/13 00:04:08;;;;;;;2.95;1.77;;;6.00;99.90;;;;;;5069225;28;20082;-49
2021/03/13 00:06:33;;;;;;;2.10;1.40;;;6.10;99.90;;;;;;5069450;28;20040;-51
2021/03/13 00:08:59;;;;;;;2.17;1.98;;;6.20;99.90;;;;;;5068939;28;20067;-53
2021/03/13 00:11:24;;;;;;;3.45;1.25;;;6.20;99.90;;;;;;5069228;28;20056;-54
2021/03/13 00:13:50;;;;;;;1.73;1.50;;;6.30;99.90;;;;;;5068815;28;20067;-56
2021/03/13 00:16:15;;;;;;;1.35;1.25;;;6.30;99.90;;;;;;5068890;28;20462;-52
2021/03/13 00:18:41;;;;;;;2.25;1.40;;;6.40;99.90;;;;;;5068604;28;20537;-51
2021/03/13 00:21:06;;;;;;;2.75;1.52;;;6.50;99.90;;;;;;5068897;28;20494;-53
2021/03/13 00:23:33;;;;;;;1.65;1.52;;;6.50;99.90;;;;;;5068928;28;20224;-49
2021/03/13 00:25:58;;;;;;;2.38;1.52;;;6.60;99.90;;;;;;5068481;28;20044;-49
2021/03/13 00:28:24;;;;;;;2.50;1.30;;;6.60;99.90;;;;;;5069788;28;20068;-51
2021/03/13 00:30:50;;;;;;;3.78;1.13;;;6.70;99.90;;;;;;5069425;28;20457;-53
2021/03/13 00:33:20;;;;;;;2.78;1.15;;;6.70;99.90;;;;;;5068563;28;20085;-53
2021/03/13 00:35:49;;;;;;;1.70;1.20;;;6.80;99.90;;;;;;5050019;28;20034;-50
2021/03/13 00:38:15;;;;;;;2.60;1.40;;;6.80;99.90;;;;;;5068706;28;20032;-55
2021/03/13 00:40:43;;;;;;;1.67;1.10;;;6.80;99.90;;;;;;5068642;28;20513;-54
2021/03/13 00:43:10;;;;;;;3.90;1.10;;;6.80;99.90;;;;;;5068599;28;20035;-53
2021/03/13 00:45:36;;;;;;;1.50;1.40;;;6.90;99.90;;;;;;5068698;28;20787;-57
2021/03/13 00:48:03;;;;;;;3.13;1.10;;;6.90;99.90;;;;;;5051409;28;20033;-56
2021/03/13 00:50:30;;;;;;;2.20;1.20;;;6.80;99.90;;;;;;5094598;22;20067;-52
2021/03/13 00:52:56;;;;;;;1.67;1.35;;;6.90;99.90;;;;;;5110402;28;20019;-50
2021/03/13 00:55:23;;;;;;;2.47;1.48;;;6.90;99.90;;;;;;5092166;28;20035;-52
2021/03/13 00:57:49;;;;;;;4.25;1.10;;;6.90;99.90;;;;;;5111817;28;20020;-50
2021/03/13 01:00:17;;;;;;;1.40;1.30;;;7.00;99.90;;;;;;5093578;28;20504;-52
2021/03/13 01:02:42;;;;;;;1.30;1.15;;;6.90;99.90;;;;;;5110960;28;20076;-48
2021/03/13 01:05:10;;;;;;;1.00;0.95;;;6.90;99.90;;;;;;5093431;28;20489;-55
2021/03/13 01:07:37;;;;;;;2.25;1.10;;;6.90;99.90;;;;;;5111649;28;20388;-52
2021/03/13 01:10:28;;;;;;;2.63;1.33;;;6.90;99.90;;;;;;5093053;28;20545;-53
2021/03/13 01:12:55;;;;;;;4.32;1.48;;;6.90;99.90;;;;;;5092472;28;20486;-51
2021/03/13 01:15:23;;;;;;;1.38;1.23;;;7.00;99.90;;;;;;5111604;28;20063;-52
2021/03/13 01:17:49;;;;;;;2.05;1.30;;;7.00;99.90;;;;;;5092985;28;20404;-49
2021/03/13 01:20:16;;;;;;;2.20;1.30;;;7.00;99.90;;;;;;5111512;28;20019;-51
2021/03/13 01:22:43;;;;;;;1.10;0.95;;;7.10;99.90;;;;;;5110383;28;20030;-51
2021/03/13 01:25:10;;;;;;;1.77;1.10;;;7.10;99.90;;;;;;5092999;28;20023;-52
2021/03/13 01:27:36;;;;;;;2.03;1.05;;;7.10;99.90;;;;;;5111153;28;20153;-50
2021/03/13 01:30:08;;;;;;;1.30;1.20;;;7.10;99.90;;;;;;5110927;28;20023;-48
2021/03/13 01:32:34;;;;;;;1.60;1.27;;;7.10;99.90;;;;;;5110320;28;20023;-43
2021/03/13 01:34:59;;;;;;;1.77;1.30;;;7.10;99.90;;;;;;5110848;28;20088;-50
2021/03/13 01:37:25;;;;;;;2.10;1.33;;;7.10;99.90;;;;;;5111127;28;20015;-51
2021/03/13 01:39:50;;;;;;;2.05;1.30;;;7.00;99.90;;;;;;5111389;28;20094;-51
2021/03/13 01:42:16;;;;;;;4.00;1.30;;;7.00;99.90;;;;;;5110997;28;20027;-49
2021/03/13 01:44:42;;;;;;;1.33;1.23;;;7.00;99.90;;;;;;5110207;28;20560;-53
2021/03/13 01:47:16;;;;;;;2.75;1.20;;;7.10;99.90;;;;;;5092737;28;20476;-50
2021/03/13 01:49:43;;;;;;;1.95;1.55;;;7.10;99.90;;;;;;5110612;28;20103;-47
2021/03/13 01:52:10;;;;;;;3.85;1.45;;;7.20;99.90;;;;;;5110375;28;20088;-47
2021/03/13 01:54:36;;;;;;;2.53;1.27;;;7.20;99.90;;;;;;5109779;28;20066;-50
2021/03/13 01:57:02;;;;;;;4.70;1.30;;;7.20;99.90;;;;;;5110504;28;20446;-51
2021/03/13 01:59:28;;;;;;;1.70;1.30;;;7.20;99.90;;;;;;5110904;28;20023;-52
2021/03/13 02:01:53;;;;;;;3.10;1.33;;;7.20;99.90;;;;;;5110764;28;20148;-51
2021/03/13 02:04:19;;;;;;;4.03;1.17;;;7.30;99.90;;;;;;5110023;28;20024;-50
2021/03/13 02:07:00;;;;;;;4.03;1.55;;;7.20;99.90;;;;;;5110579;28;20537;-54
2021/03/13 02:09:30;;;;;;;7.50;1.50;;;7.20;99.90;;;;;;5110663;28;20081;-50
2021/03/13 02:12:04;;;;;;;3.28;1.70;;;7.20;99.90;;;;;;5110656;28;20028;-50
2021/03/13 02:14:51;;;;;;;3.67;1.40;;;7.20;99.90;;;;;;5093187;28;20368;-52
2021/03/13 02:17:26;;;;;;;1.20;1.10;;;7.30;99.90;;;;;;5094605;28;20511;-54
2021/03/13 02:20:07;;;;;;;1.73;1.02;;;7.30;99.90;;;;;;5111000;28;20020;-52
2021/03/13 02:22:37;;;;;;;2.47;1.10;;;7.30;99.90;;;;;;5091582;28;20072;-53
2021/03/13 02:25:37;;;;;;;4.32;0.90;;;7.30;99.90;;;;;;5110273;28;20081;-53
2021/03/13 02:28:13;;;;;;;2.92;1.45;;;7.30;99.90;;;;;;5092178;28;20242;-53
2021/03/13 02:30:41;;;;;;;1.27;1.20;;;7.20;99.90;;;;;;5110202;28;20336;-49
2021/03/13 02:33:23;;;;;;;1.08;0.88;;;7.20;99.90;;;;;;5109533;28;20038;-51
2021/03/13 02:35:56;;;;;;;1.30;1.10;;;7.30;99.90;;;;;;5110078;28;20027;-49
2021/03/13 02:38:28;;;;;;;1.23;1.10;;;7.30;99.90;;;;;;5110137;28;20023;-53
2021/03/13 02:40:56;;;;;;;3.75;1.00;;;7.20;99.90;;;;;;5109870;28;20027;-53
2021/03/13 02:43:23;;;;;;;2.97;0.98;;;7.20;99.90;;;;;;5109359;28;20022;-50
2021/03/13 02:45:53;;;;;;;3.30;1.20;;;7.20;99.90;;;;;;5110063;28;20020;-49
2021/03/13 02:48:20;;;;;;;2.50;1.40;;;7.20;99.90;;;;;;5110013;28;20027;-51
2021/03/13 02:50:47;;;;;;;1.25;0.98;;;7.20;99.90;;;;;;5109872;28;20038;-49
2021/03/13 02:53:13;;;;;;;5.35;0.90;;;7.20;99.90;;;;;;5109760;28;20329;-48
2021/03/13 02:55:41;;;;;;;2.05;1.02;;;7.10;99.90;;;;;;5110192;28;20062;-53
2021/03/13 02:58:07;;;;;;;1.30;0.95;;;7.20;99.90;;;;;;5110284;28;20020;-50
2021/03/13 03:00:36;;;;;;;1.75;1.15;;;7.20;99.90;;;;;;5110275;28;20042;-53
2021/03/13 03:03:04;;;;;;;2.38;1.27;;;7.10;99.90;;;;;;5094381;28;20069;-54
2021/03/13 03:05:31;;;;;;;1.08;1.05;;;7.20;99.90;;;;;;5096337;28;20031;-51
2021/03/13 03:08:01;;;;;;;1.00;1.00;;;7.20;99.90;;;;;;5114193;28;20024;-53
2021/03/13 03:10:31;;;;;;;3.67;1.13;;;7.20;99.90;;;;;;5113970;28;20066;-52
2021/03/13 03:13:00;;;;;;;4.03;1.02;;;7.20;99.90;;;;;;5113043;28;20023;-52
2021/03/13 03:15:29;;;;;;;2.00;0.98;;;7.20;99.90;;;;;;5113938;28;20024;-52
2021/03/13 03:17:59;;;;;;;3.40;1.13;;;7.10;99.90;;;;;;5113710;28;20035;-49
2021/03/13 03:20:26;;;;;;;0.90;0.90;;;7.10;99.90;;;;;;5095130;28;20015;-55
2021/03/13 03:22:51;;;;;;;4.15;1.88;;;7.20;99.90;;;;;;5112892;28;20027;-53
2021/03/13 03:25:17;;;;;;;3.78;1.67;;;7.20;99.90;;;;;;5095252;28;20165;-53
2021/03/13 03:27:50;;;;;;;7.13;1.45;;;7.10;99.90;;;;;;5113403;28;20024;-51
2021/03/13 03:30:21;;;;;;;2.55;1.05;;;7.10;99.90;;;;;;5113558;28;20172;-49
2021/03/13 03:32:47;;;;;;;3.92;1.20;;;7.10;99.90;;;;;;5112737;28;20036;-53
2021/03/13 03:35:14;;;;;;;2.20;0.90;;;7.00;99.90;;;;;;5113810;28;20512;-52
2021/03/13 03:37:40;;;;;;;3.58;1.65;;;7.00;99.90;;;;;;5113232;28;20042;-50
2021/03/13 03:40:06;;;;;;;2.70;1.30;;;6.90;99.90;;;;;;5113225;28;20020;-53
2021/03/13 03:42:34;;;;;;;1.70;1.20;;;7.00;99.90;;;;;;5094254;28;20020;-51
2021/03/13 03:45:01;;;;;;;3.38;1.58;;;7.00;99.90;;;;;;5112923;28;20019;-50
2021/03/13 03:47:29;;;;;;;3.38;1.75;;;7.00;99.90;;;;;;5113364;28;20423;-54
2021/03/13 03:49:55;;;;;;;2.80;1.48;;;7.00;99.90;;;;;;5112995;28;20023;-54
2021/03/13 03:52:20;;;;;;;2.40;1.67;;;7.00;99.90;;;;;;5112969;28;20102;-53
2021/03/13 03:54:46;;;;;;;3.95;1.13;;;7.00;99.90;;;;;;5112234;28;20088;-50
2021/03/13 03:57:14;;;;;;;2.00;1.10;;;7.00;99.90;;;;;;5113111;28;20031;-48
2021/03/13 03:59:43;;;;;;;3.30;1.48;;;7.10;99.90;;;;;;5112849;28;20047;-51
2021/03/13 04:02:09;;;;;;;2.15;1.05;;;7.10;99.90;;;;;;5113502;28;20035;-51
2021/03/13 04:04:35;;;;;;;4.13;1.17;;;7.10;99.90;;;;;;5093785;28;20015;-53
2021/03/13 04:07:02;;;;;;;3.50;1.55;;;7.10;99.90;;;;;;5112912;28;20038;-50
2021/03/13 04:09:29;;;;;;;2.35;1.63;;;7.20;99.90;;;;;;5113483;28;20027;-48
2021/03/13 04:11:56;;;;;;;1.02;0.90;;;7.20;99.90;;;;;;5112758;28;20072;-52
2021/03/13 04:14:22;;;;;;;1.95;1.58;;;7.20;99.90;;;;;;5112125;28;20020;-52
2021/03/13 04:16:50;;;;;;;2.95;1.30;;;7.20;99.90;;;;;;5113062;28;20508;-53
2021/03/13 04:19:16;;;;;;;6.53;1.30;;;7.20;99.90;;;;;;5112818;28;20034;-53
2021/03/13 04:21:42;;;;;;;4.03;1.30;;;7.30;99.90;;;;;;5112712;28;20043;-49
2021/03/13 04:24:12;;;;;;;2.58;1.15;;;7.30;99.90;;;;;;5113793;28;20034;-50
2021/03/13 04:26:38;;;;;;;1.15;1.05;;;7.40;99.90;;;;;;5112344;28;20152;-55
2021/03/13 04:29:04;;;;;;;2.80;1.70;;;7.40;99.90;;;;;;5114063;28;20027;-51
2021/03/13 04:31:32;;;;;;;2.22;1.08;;;7.50;99.90;;;;;;5112997;28;20541;-53
2021/03/13 04:33:59;;;;;;;1.00;1.00;;;7.50;99.90;;;;;;5111823;28;20037;-52
2021/03/13 04:36:26;;;;;;;2.67;1.15;;;7.50;99.90;;;;;;5112866;28;20064;-48
2021/03/13 04:38:53;;;;;;;6.18;0.98;;;7.50;99.90;;;;;;5113731;28;20099;-49
2021/03/13 04:41:19;;;;;;;5.57;0.80;;;7.50;99.90;;;;;;5113953;28;20034;-48
2021/03/13 04:43:45;;;;;;;2.15;1.55;;;7.50;99.90;;;;;;5112904;28;20081;-47
2021/03/13 04:46:11;;;;;;;3.28;1.45;;;7.50;99.90;;;;;;5113922;28;20032;-48
2021/03/13 04:48:37;;;;;;;2.53;1.17;;;7.50;99.90;;;;;;5115438;28;20062;-52
2021/03/13 04:51:06;;;;;;;1.75;0.80;;;7.60;99.90;;;;;;5096104;28;20035;-53
2021/03/13 04:53:32;;;;;;;1.27;0.50;;;7.60;99.90;;;;;;5089000;28;20023;-53
2021/03/13 04:55:58;;;;;;;2.08;0.60;;;7.60;99.90;;;;;;5112206;28;20027;-55
2021/03/13 04:58:24;;;;;;;2.30;1.10;;;7.50;99.90;;;;;;5108256;28;20389;-57
2021/03/13 05:00:51;;;;;;;2.05;1.15;;;7.60;99.90;;;;;;5112118;28;20106;-58
2021/03/13 05:03:17;;;;;;;4.72;0.80;;;7.60;99.90;;;;;;5109280;28;20091;-55
2021/03/13 05:05:43;;;;;;;2.03;0.77;;;7.50;99.90;;;;;;5111568;28;20544;-53
2021/03/13 05:08:08;;;;;;;2.85;1.00;;;7.50;99.90;;;;;;5094383;28;20036;-58
2021/03/13 05:10:34;;;;;;;8.27;1.05;;;7.50;99.90;;;;;;5090991;28;20115;-55
2021/03/13 05:13:00;;;;;;;3.85;0.80;;;7.50;99.90;;;;;;5092005;28;20397;-57
2021/03/13 05:15:26;;;;;;;0.98;0.65;;;7.50;99.90;;;;;;5073575;28;20032;-52
2021/03/13 05:17:51;;;;;;;2.05;0.82;;;7.50;99.90;;;;;;5095349;28;20024;-53
2021/03/13 05:20:17;;;;;;;0.95;0.80;;;7.50;99.90;;;;;;5110312;28;20046;-51
2021/03/13 05:22:47;;;;;;;0.98;0.60;;;7.50;99.90;;;;;;5112434;28;20434;-54
2021/03/13 05:25:13;;;;;;;0.80;0.80;;;7.50;99.90;;;;;;5086386;28;20019;-57
2021/03/13 05:27:39;;;;;;;7.72;0.95;;;7.50;99.90;;;;;;5092428;28;20085;-53
2021/03/13 05:30:06;;;;;;;1.30;0.90;;;7.50;99.90;;;;;;5095749;28;20023;-59
2021/03/13 05:32:32;;;;;;;5.63;1.27;;;7.50;99.90;;;;;;5111258;28;20046;-51
2021/03/13 05:34:58;;;;;;;1.33;1.08;;;7.50;99.90;;;;;;5089573;28;20015;-54
2021/03/13 05:37:23;;;;;;;3.40;1.67;;;7.50;99.90;;;;;;5081732;28;20469;-55
2021/03/13 05:39:49;;;;;;;3.42;1.20;;;7.50;99.90;;;;;;5108301;28;20026;-53
2021/03/13 05:42:14;;;;;;;2.95;0.90;;;7.50;99.90;;;;;;5111445;28;20027;-50
2021/03/13 05:44:41;;;;;;;6.13;1.38;;;7.50;99.90;;;;;;5094706;28;20028;-48
2021/03/13 05:47:07;;;;;;;4.30;1.23;;;7.60;99.90;;;;;;5079810;28;20487;-53
2021/03/13 05:49:35;;;;;;;2.88;1.15;;;7.60;99.90;;;;;;5110701;28;20025;-53
2021/03/13 05:52:03;;;;;;;1.65;1.20;;;7.60;99.90;;;;;;5086718;28;20032;-53
2021/03/13 05:54:29;;;;;;;2.65;1.35;;;7.60;99.90;;;;;;5093111;28;20400;-52
2021/03/13 05:56:58;;;;;;;2.55;1.02;;;7.70;99.90;;;;;;5090152;28;20111;-55
2021/03/13 05:59:23;;;;;;;8.10;2.40;;;7.70;99.90;;;;;;5091652;28;20028;-53
2021/03/13 06:01:51;;;;;;;10.75;1.83;;;7.80;99.90;;;;;;5091251;28;20051;-58
2021/03/13 06:04:17;;;;;;;8.45;1.58;;;7.80;99.90;;;;;;5091571;28;20036;-54
2021/03/13 06:06:44;;;;;;;4.97;2.00;;;7.80;99.90;;;;;;5090565;28;20039;-48
2021/03/13 06:09:12;;;;;;;2.20;1.10;;;7.90;99.90;;;;;;5093958;28;20051;-54
2021/03/13 06:11:37;;;;;;;10.05;1.70;;;7.90;99.90;;;;;;5092912;28;20038;-50
2021/03/13 06:14:03;;;;;;;6.35;1.55;;;8.00;99.90;;;;;;5106344;28;20401;-51
2021/03/13 06:16:31;;;;;;;11.52;1.67;;;8.00;99.90;;;;;;5090422;28;20104;-51
2021/03/13 06:18:57;;;;;;;3.70;1.30;;;8.10;99.90;;;;;;5092208;28;20020;-55
2021/03/13 06:21:35;;;;;;;3.97;1.30;;;8.10;99.90;;;;;;5110945;28;20041;-58
2021/03/13 06:24:02;;;;;;;5.38;1.00;;;8.20;99.90;;;;;;5108924;28;20051;-52
2021/03/13 06:26:49;;;;;;;6.50;1.25;;;8.20;99.90;;;;;;5111059;28;20059;-54
2021/03/13 06:29:15;;;;;;;5.63;1.10;;;8.20;99.90;;;;;;5107244;28;20028;-57
2021/03/13 06:31:41;;;;;;;3.28;1.38;;;8.20;99.90;;;;;;5090568;28;20515;-52
2021/03/13 06:34:06;;;;;;;9.75;2.50;;;8.20;99.90;;;;;;5091043;28;20028;-54
2021/03/13 06:36:32;;;;;;;5.20;1.60;;;8.20;99.90;;;;;;5091721;28;20123;-55
2021/03/13 06:38:58;;;;;;;7.22;2.70;;;8.30;99.90;;;;;;5077121;28;20024;-58
2021/03/13 06:41:25;;;;;;;6.60;1.55;;;8.30;99.90;;;;;;5094298;28;20436;-51
2021/03/13 06:43:52;;;;;;;6.82;1.85;;;8.30;99.90;;;;;;5093814;28;20039;-53
2021/03/13 06:46:20;;;;;;;4.78;1.20;;;8.30;99.90;;;;;;5114708;28;20019;-57
2021/03/13 06:48:57;;;;;;;2.92;1.23;;;8.30;99.90;;;;;;5114334;28;20034;-56
2021/03/13 06:51:29;;;;;;;4.60;2.05;;;8.40;99.90;;;;;;5126707;22;20096;-52
2021/03/13 06:54:12;;;;;;;3.13;1.55;;;8.40;99.90;;;;;;5113819;28;20388;-54
2021/03/13 06:56:39;;;;;;;3.63;1.23;;;8.40;99.90;;;;;;5094111;28;20085;-56
2021/03/13 06:59:46;;;;;;;3.28;1.00;;;8.40;99.90;;;;;;5094454;28;20069;-53
2021/03/13 07:02:12;;;;;;;;;;;8.50;99.90;;;;;;4996316;28;20026;-54
2021/03/13 07:04:42;;;;;;;6.32;1.33;;;8.50;99.90;;;;;;5074702;28;19916;-57
2021/03/13 07:07:10;;;;;;;1.77;0.93;;;8.50;99.90;;;;;;5066753;28;20044;-54
2021/03/13 07:09:51;;;;;;;3.90;1.60;;;8.50;99.90;;;;;;5077405;28;20413;-56
2021/03/13 07:12:40;;;;;;;7.80;1.23;;;8.50;99.90;;;;;;5061197;28;20024;-57
2021/03/13 07:15:24;;;;;;;4.60;1.58;;;8.50;99.90;;;;;;5097883;28;20106;-56
2021/03/13 07:17:58;;;;;;;2.00;1.02;;;8.50;99.90;;;;;;5061915;28;20096;-55
2021/03/13 07:20:32;;;;;;;6.05;1.30;;;8.50;99.90;;;;;;5093387;28;20380;-51
2021/03/13 07:23:00;;;;;;;1.65;1.00;;;8.50;99.90;;;;;;5093883;28;20019;-47
2021/03/13 07:25:28;;;;;;;4.50;1.40;;;8.50;99.90;;;;;;5092183;28;20042;-46
2021/03/13 07:27:58;;;;;;;3.80;1.20;;;8.50;99.90;;;;;;5093598;28;20027;-48
2021/03/13 07:30:25;;;;;;;1.65;1.17;;;8.60;99.90;;;;;;5091504;28;20039;-49
2021/03/13 07:32:58;;;;;;;2.92;1.23;;;8.60;99.90;;;;;;5074460;28;20034;-46
2021/03/13 07:35:27;;;;;;;2.50;0.88;;;8.60;99.90;;;;;;5073500;28;20122;-47
2021/03/13 07:37:55;;;;;;;3.33;1.20;;;8.60;99.90;;;;;;5092158;28;20032;-47
2021/03/13 07:40:21;;;;;;;2.13;1.40;;;8.60;99.90;;;;;;5073058;28;20107;-47
2021/03/13 07:42:49;;;;;;;2.25;1.50;;;8.70;99.90;;;;;;5072272;28;20048;-48
2021/03/13 07:45:16;;;;;;;6.75;1.00;;;8.70;99.90;;;;;;5073116;28;20028;-47
2021/03/13 07:47:42;;;;;;;3.40;1.17;;;8.80;99.90;;;;;;5072206;28;20033;-47
2021/03/13 07:50:10;;;;;;;4.47;1.40;;;8.80;99.90;;;;;;5072566;28;20163;-47
2021/03/13 07:52:40;;;;;;;1.85;0.95;;;8.80;99.90;;;;;;5071830;28;20041;-47
2021/03/13 07:55:12;;;;;;;5.30;0.77;;;8.80;99.90;;;;;;5072784;28;20075;-46
2021/03/13 07:57:41;;;;;;;5.80;1.15;;;8.90;99.90;;;;;;5072555;28;20017;-50
2021/03/13 08:00:07;;;;;;;6.32;1.25;;;9.00;99.90;;;;;;5073097;28;20017;-48
2021/03/13 08:02:32;;;;;;;4.70;1.05;;;9.10;99.90;;;;;;5054232;28;20043;-48
2021/03/13 08:05:06;;;;;;;7.80;1.83;;;9.20;99.60;;;;;;5072813;28;20029;-48
2021/03/13 08:07:52;;;;;;;3.75;1.15;;;9.20;99.40;;;;;;5054393;28;20493;-46
2021/03/13 08:10:36;;;;;;;;;;;9.30;99.00;;;;;;5072733;28;20195;-47
2021/03/13 08:13:01;;;;;;;2.90;0.93;;;9.30;99.00;;;;;;5071423;28;19904;-48
2021/03/13 08:15:29;;;;;;;4.43;1.10;;;9.40;99.00;;;;;;5079999;28;20076;-47
2021/03/13 08:17:55;;;;;;;3.13;1.13;;;9.40;98.80;;;;;;5092373;28;20031;-46
2021/03/13 08:20:32;;;;;;;6.03;1.42;;;9.50;98.70;;;;;;5087516;28;20029;-46
2021/03/13 08:23:13;;;;;;;2.88;1.70;;;9.50;98.30;;;;;;5072313;28;20029;-45
2021/03/13 08:25:55;;;;;;;6.57;1.17;;;9.50;98.20;;;;;;5071881;28;20035;-46
2021/03/13 08:28:46;;;;;;;6.15;1.55;;;9.60;98.30;;;;;;5073623;28;20095;-46
2021/03/13 08:31:28;;;;;;;5.95;1.40;;;9.60;98.10;;;;;;5071964;28;20375;-48
2021/03/13 08:33:55;;;;;;;5.53;1.08;;;9.70;98.00;;;;;;5082312;28;20032;-45
2021/03/13 08:36:23;;;;;;;2.50;1.83;;;9.80;97.80;;;;;;5091985;28;20397;-52
2021/03/13 08:38:59;;;;;;;3.15;1.13;;;9.80;97.70;;;;;;5090122;28;20031;-51
2021/03/13 08:41:40;;;;;;;2.67;1.15;;;9.90;97.60;;;;;;5089302;28;20042;-49
2021/03/13 08:44:06;;;;;;;3.38;1.33;;;9.90;97.70;;;;;;5065997;28;20023;-50
2021/03/13 08:46:48;;;;;;;2.25;1.10;;;9.90;97.60;;;;;;5091775;28;20054;-54
2021/03/13 08:49:29;;;;;;;2.95;0.93;;;10.00;97.80;;;;;;5057605;28;20110;-53
2021/03/13 08:52:07;;;;;;;4.13;0.90;;;9.90;97.90;;;;;;5083745;28;20039;-53
2021/03/13 08:54:41;;;;;;;2.00;0.90;;;10.00;98.00;;;;;;5048455;28;20020;-54
2021/03/13 08:57:17;;;;;;;4.37;0.97;;;10.00;98.10;;;;;;5079623;28;20458;-53
2021/03/13 08:59:51;;;;;;;2.60;0.95;;;10.00;98.30;;;;;;5080193;28;20432;-51
2021/03/13 09:02:19;;;;;;;1.80;0.80;;;10.00;98.10;;;;;;5074170;28;20036;-49
2021/03/13 09:04:50;;;;;;;3.30;1.00;;;10.00;98.10;;;;;;5086095;28;20026;-51
2021/03/13 09:07:18;;;;;;;5.10;1.23;;;10.00;98.20;;;;;;5082694;28;20112;-49
2021/03/13 09:09:44;;;;;;;1.48;0.75;;;9.90;98.40;;;;;;5070087;28;20060;-50
2021/03/13 09:12:17;;;;;;;3.72;0.80;;;10.00;98.50;;;;;;5076959;28;20048;-48
2021/03/13 09:15:06;;;;;;;3.28;1.10;;;9.90;98.50;;;;;;5089122;28;20028;-48
2021/03/13 09:17:33;;;;;;;2.15;0.95;;;9.90;98.60;;;;;;5080730;28;20044;-49
2021/03/13 09:20:08;;;;;;;2.22;0.77;;;9.80;98.70;;;;;;5069817;28;20016;-52
2021/03/13 09:22:38;;;;;;;10.55;3.90;;;9.80;98.60;;;;;;5069227;28;20029;-47
2021/03/13 09:25:11;;;;;;;2.63;1.55;;;9.80;98.80;;;;;;5051284;28;20026;-48
2021/03/13 09:27:39;;;;;;;4.32;1.60;;;9.80;98.80;;;;;;5059342;28;20035;-52
2021/03/13 09:30:08;;;;;;;2.20;0.88;;;9.80;98.90;;;;;;5090466;28;20035;-53
2021/03/13 09:32:41;;;;;;;3.45;0.80;;;9.80;99.10;;;;;;5078985;28;20035;-51
2021/03/13 09:35:07;;;;;;;3.67;1.42;;;9.80;98.90;;;;;;5069608;28;20031;-48
2021/03/13 09:37:32;;;;;;;1.63;0.85;;;9.90;99.10;;;;;;5073859;28;20100;-58
2021/03/13 09:40:16;;;;;;;5.88;0.95;;;9.90;99.00;;;;;;5062932;28;20135;-56
2021/03/13 09:42:46;;;;;;;3.40;0.70;;;10.00;98.40;;;;;;5075704;28;20029;-57
2021/03/13 09:45:17;;;;;;;3.03;0.65;;;10.00;98.30;;;;;;5069322;28;20074;-57
2021/03/13 09:47:58;;;;;;;4.38;1.02;;;10.10;98.30;;;;;;5071061;28;20024;-57
2021/03/13 09:50:34;;;;;;;0.57;0.52;;;10.10;98.30;;;;;;5078177;28;20031;-60
2021/03/13 09:53:02;;;;;;;1.45;0.63;;;10.20;98.10;;;;;;5088273;28;20017;-58
2021/03/13 09:55:31;;;;;;;1.27;0.60;;;10.20;97.70;;;;;;5086636;28;20043;-61
2021/03/13 09:57:59;;;;;;;1.10;0.75;;;10.20;97.60;;;;;;5080866;28;20017;-53
2021/03/13 10:00:33;;;;;;;3.13;0.80;;;10.20;97.80;;;;;;5051070;28;20128;-56
2021/03/13 10:03:01;;;;;;;1.13;0.70;;;10.20;97.90;;;;;;5082348;28;20481;-59
2021/03/13 10:05:28;;;;;;;3.92;0.70;;;10.10;97.90;;;;;;5089604;28;20032;-57
2021/03/13 10:07:54;;;;;;;6.07;0.60;;;10.10;97.90;;;;;;5089290;28;20028;-54
2021/03/13 10:10:22;;;;;;;3.45;1.10;;;10.10;98.00;;;;;;5066774;28;20397;-51
2021/03/13 10:12:49;;;;;;;2.65;0.60;;;10.20;98.40;;;;;;5080345;28;20224;-57
2021/03/13 10:15:25;;;;;;;2.95;0.90;;;10.20;98.10;;;;;;5089268;28;20032;-54
2021/03/13 10:17:50;;;;;;;4.78;0.70;;;10.20;98.40;;;;;;5077124;28;20039;-56
2021/03/13 10:20:16;;;;;;;0.82;0.60;;;10.10;98.30;;;;;;5071345;28;20024;-54
2021/03/13 10:22:42;;;;;;;3.30;0.63;;;10.10;98.50;;;;;;5088481;28;20069;-53
2021/03/13 10:25:08;;;;;;;2.20;0.57;;;10.10;98.70;;;;;;5070168;28;20053;-57
2021/03/13 10:27:35;;;;;;;1.80;0.70;;;10.10;98.60;;;;;;5070283;28;20031;-60
2021/03/13 10:30:06;;;;;;;1.42;0.60;;;10.20;98.70;;;;;;5083718;28;20028;-59
2021/03/13 10:32:34;;;;;;;2.97;0.85;;;10.10;98.70;;;;;;5072537;28;20037;-58
2021/03/13 10:35:10;;;;;;;2.85;1.25;;;10.10;99.00;;;;;;5076268;28;20393;-58
2021/03/13 10:37:42;;;;;;;6.22;0.73;;;10.00;99.90;;;;;;5089044;28;20059;-60
2021/03/13 10:40:27;;;;;;;3.03;1.88;;;9.80;99.90;;;;;;5087584;28;20020;-56
2021/03/13 10:42:52;;;;;;;3.30;1.33;;;9.50;99.90;;;;;;5050170;28;20418;-45
2021/03/13 10:45:20;;;;;;;3.75;1.27;;;9.20;99.90;;;;;;5053013;28;20058;-42
2021/03/13 10:47:46;;;;;;;3.92;1.10;;;8.90;99.90;;;;;;5069862;28;20024;-46
2021/03/13 10:50:12;;;;;;;2.83;1.58;;;8.50;99.90;;;;;;5071341;28;20029;-44
2021/03/13 10:52:39;;;;;;;2.35;0.80;;;8.30;99.90;;;;;;5084279;28;20378;-44
2021/03/13 10:55:06;;;;;;;3.67;1.00;;;8.20;99.90;;;;;;5083413;28;20530;-46
2021/03/13 10:57:32;;;;;;;5.18;0.82;;;7.90;99.90;;;;;;5080035;28;20025;-45
2021/03/13 10:59:58;;;;;;;2.17;1.00;;;7.80;99.90;;;;;;5069846;28;20031;-45
2021/03/13 11:02:23;;;;;;;1.38;0.95;;;7.80;99.90;;;;;;5089065;28;20107;-45
2021/03/13 11:04:49;;;;;;;0.82;0.60;;;7.70;99.90;;;;;;5089612;28;20095;-45
2021/03/13 11:07:15;;;;;;;1.00;0.82;;;7.60;99.90;;;;;;5088338;28;20131;-44
2021/03/13 11:09:46;;;;;;;0.45;0.45;;;7.40;99.90;;;;;;5090294;28;20024;-45
2021/03/13 11:12:11;;;;;;;0.50;0.50;;;7.20;99.90;;;;;;5086709;28;20511;-42
2021/03/13 11:14:38;;;;;;;1.65;0.50;;;7.10;99.90;;;;;;5069306;28;20061;-42
2021/03/13 11:17:03;;;;;;;0.40;0.40;;;7.10;99.90;;;;;;5074552;28;20029;-43
2021/03/13 11:19:29;;;;;;;0.43;0.43;;;7.10;99.90;;;;;;5052165;28;20107;-44
2021/03/13 11:21:55;;;;;;;0.65;0.47;;;7.10;99.90;;;;;;5070667;28;20033;-44
2021/03/13 11:24:20;;;;;;;0.55;0.40;;;7.10;99.90;;;;;;5071434;28;20329;-45
2021/03/13 11:26:46;;;;;;;0.35;0.35;;;7.10;99.90;;;;;;5084870;28;20524;-45
2021/03/13 11:29:11;;;;;;;0.30;0.30;;;7.10;99.90;;;;;;5093462;28;20056;-43
2021/03/13 11:31:38;;;;;;;0.40;0.40;;;7.20;99.90;;;;;;5083611;28;20484;-43
2021/03/13 11:34:04;;;;;;;1.15;0.60;;;7.20;99.90;;;;;;5072258;28;20452;-44
2021/03/13 11:36:29;;;;;;;0.95;0.60;;;7.20;99.90;;;;;;5073936;28;20032;-43
2021/03/13 11:38:55;;;;;;;0.60;0.60;;;7.10;99.90;;;;;;5072856;28;20477;-46
2021/03/13 11:41:21;;;;;;;0.57;0.40;;;7.00;99.90;;;;;;5079064;28;20024;-43
2021/03/13 11:43:46;;;;;;;2.13;0.90;;;6.90;99.90;;;;;;5090803;28;20051;-44
2021/03/13 11:46:13;;;;;;;1.25;0.63;;;6.90;99.90;;;;;;5090995;28;20046;-42
2021/03/13 11:48:41;;;;;;;0.60;0.60;;;6.90;99.90;;;;;;5092626;28;20020;-45
2021/03/13 11:51:07;;;;;;;2.65;0.70;;;6.90;99.90;;;;;;5089691;28;20020;-42
2021/03/13 11:53:33;;;;;;;2.05;0.55;;;6.80;99.90;;;;;;5090338;28;20051;-43
2021/03/13 11:55:58;;;;;;;1.73;0.50;;;6.80;99.90;;;;;;5090553;28;20354;-43
2021/03/13 11:58:24;;;;;;;1.45;0.73;;;6.80;99.90;;;;;;5092742;28;20031;-45
2021/03/13 12:00:51;;;;;;;4.82;0.85;;;6.80;99.90;;;;;;5090156;28;20106;-43
2021/03/13 12:03:17;;;;;;;1.10;0.50;;;6.80;99.90;;;;;;5071611;28;20112;-46
2021/03/13 12:05:42;;;;;;;1.33;0.85;;;6.80;99.90;;;;;;5072590;28;20025;-44
2021/03/13 12:08:09;;;;;;;2.63;0.77;;;6.80;99.90;;;;;;5090651;28;20024;-47
2021/03/13 12:10:35;;;;;;;1.67;0.85;;;6.80;99.90;;;;;;5086281;28;20444;-42
2021/03/13 12:13:01;;;;;;;4.18;1.00;;;6.80;99.90;;;;;;5073691;28;20120;-46
2021/03/13 12:15:26;;;;;;;1.85;0.60;;;6.80;99.90;;;;;;5059377;28;20032;-47
2021/03/13 12:17:52;;;;;;;2.95;0.63;;;6.80;99.90;;;;;;5079196;28;20016;-42
2021/03/13 12:20:19;;;;;;;1.92;0.60;;;6.90;99.90;;;;;;5068861;28;20035;-42
2021/03/13 12:22:44;;;;;;;0.85;0.60;;;6.90;99.90;;;;;;5081369;28;20017;-43
2021/03/13 12:25:10;;;;;;;1.40;0.65;;;7.00;99.90;;;;;;5071968;28;20056;-41
2021/03/13 12:27:39;;;;;;;6.65;0.43;;;7.10;99.90;;;;;;5088689;28;20190;-42
2021/03/13 12:30:15;;;;;;;0.40;0.40;;;7.20;99.90;;;;;;5079124;28;20028;-43
2021/03/13 12:32:41;;;;;;;;;;;7.30;99.90;;;;;;5071590;28;20020;-43
2021/03/13 12:35:09;;;;;;;0.38;0.38;;;7.40;99.90;;;;;;5071373;28;19948;-42
2021/03/13 12:37:35;;;;;;;1.85;0.50;;;7.50;99.90;;;;;;5071769;28;20047;-42
2021/03/13 12:40:03;;;;;;;2.35;0.80;;;7.50;99.90;;;;;;5090449;28;20031;-44
2021/03/13 12:42:29;;;;;;;0.50;0.50;;;7.60;99.90;;;;;;5091824;28;20044;-42
2021/03/13 12:44:54;;;;;;;0.50;0.50;;;7.70;99.90;;;;;;5092029;28;20422;-44
2021/03/13 12:47:19;;;;;;;7.93;1.20;;;7.80;99.90;;;;;;5086087;28;20051;-44
2021/03/13 12:49:45;;;;;;;2.60;1.50;;;8.00;99.90;;;;;;5076826;28;20498;-42
2021/03/13 12:52:11;;;;;;;2.13;1.13;;;8.10;99.90;;;;;;5070157;28;20035;-44
2021/03/13 12:54:36;;;;;;;2.33;1.45;;;8.20;99.90;;;;;;5086569;28;20024;-42
2021/03/13 12:57:03;;;;;;;2.10;1.67;;;8.30;99.90;;;;;;5071029;28;20037;-43
2021/03/13 12:59:28;;;;;;;1.95;1.50;;;8.30;99.90;;;;;;5095040;22;20059;-44
2021/03/13 13:01:54;;;;;;;5.55;1.70;;;8.40;99.90;;;;;;5083854;28;20024;-50
2021/03/13 13:04:19;;;;;;;4.18;2.15;;;8.40;99.90;;;;;;5091960;28;20040;-42
2021/03/13 13:06:45;;;;;;;4.75;2.20;;;8.50;99.90;;;;;;5086390;28;20024;-48